Time;durP1;ratioP1;P1;durP2;ratioP2;P2;SDS_P1;SDS_P2;PMS_P1;PMS_P2;Temp;Humidity;BMP_temperature;BMP_pressure;BME280_temperature;BME280_humidity;BME280_pressure;Samples;Min_cycle;Max_cycle;Signal;HPM_P1;HPM_P2
2024/02/22 00:02:04;;;;;;;5.93;3.90;;;8.40;99.90;;;;;;4939454;29;20067;-89
2024/02/22 00:04:31;;;;;;;7.07;4.03;;;8.40;99.90;;;;;;4927756;29;20051;-89
2024/02/22 00:06:57;;;;;;;6.10;3.50;;;8.40;99.90;;;;;;4939539;29;20039;-89
2024/02/22 00:09:24;;;;;;;7.80;4.28;;;8.40;99.90;;;;;;4945218;29;20536;-89
2024/02/22 00:11:51;;;;;;;6.38;4.20;;;8.40;99.90;;;;;;4939761;29;20044;-89
2024/02/22 00:14:18;;;;;;;7.03;4.82;;;8.40;99.90;;;;;;4932107;29;20048;-89
2024/02/22 00:16:45;;;;;;;8.02;4.85;;;8.50;99.90;;;;;;4929102;29;20095;-88
2024/02/22 00:19:11;;;;;;;7.47;4.45;;;8.60;99.90;;;;;;4955382;29;20044;-89
2024/02/22 00:21:38;;;;;;;7.13;4.40;;;8.50;99.90;;;;;;4939196;29;20106;-89
2024/02/22 00:24:05;;;;;;;6.82;4.63;;;8.50;99.90;;;;;;4939732;29;20047;-89
2024/02/22 00:26:31;;;;;;;6.40;4.25;;;8.50;99.90;;;;;;4939304;29;20059;-89
2024/02/22 00:28:58;;;;;;;7.75;5.28;;;8.50;99.90;;;;;;4940743;29;20456;-88
2024/02/22 00:31:25;;;;;;;7.03;4.80;;;8.50;99.90;;;;;;4939443;29;20097;-89
2024/02/22 00:33:51;;;;;;;5.97;4.20;;;8.60;99.90;;;;;;4938972;29;20416;-89
2024/02/22 00:36:18;;;;;;;7.45;4.43;;;8.50;99.90;;;;;;4938805;29;20051;-89
2024/02/22 00:38:45;;;;;;;6.90;4.10;;;8.50;99.90;;;;;;4939371;29;20050;-89
2024/02/22 00:41:11;;;;;;;6.40;4.20;;;8.50;99.90;;;;;;4951669;29;20114;-89
2024/02/22 00:43:38;;;;;;;8.23;4.50;;;8.50;99.90;;;;;;4938889;29;20076;-89
2024/02/22 00:46:05;;;;;;;6.18;3.78;;;8.80;99.90;;;;;;4940428;29;20036;-89
2024/02/22 00:48:31;;;;;;;5.90;3.72;;;8.50;99.90;;;;;;4937231;29;20071;-89
2024/02/22 00:50:58;;;;;;;6.20;3.88;;;8.40;99.90;;;;;;4937949;29;20061;-88
2024/02/22 00:53:24;;;;;;;6.50;3.53;;;8.60;99.90;;;;;;4936353;29;20091;-88
2024/02/22 00:55:51;;;;;;;6.72;3.83;;;9.20;99.90;;;;;;4954362;29;20047;-89
2024/02/22 00:58:18;;;;;;;7.30;3.80;;;8.60;99.90;;;;;;4935856;29;20104;-88
2024/02/22 01:00:45;;;;;;;8.27;3.90;;;9.00;99.90;;;;;;4932842;29;20047;-89
2024/02/22 01:03:12;;;;;;;5.72;3.53;;;8.60;99.90;;;;;;4943739;29;20527;-88
2024/02/22 01:05:38;;;;;;;6.07;3.83;;;8.90;99.90;;;;;;4939166;29;20055;-89
2024/02/22 01:08:05;;;;;;;5.95;3.50;;;8.60;99.90;;;;;;4939101;29;20074;-89
2024/02/22 01:10:32;;;;;;;4.95;3.30;;;8.60;99.90;;;;;;4939340;29;20047;-89
2024/02/22 01:12:58;;;;;;;5.80;3.90;;;8.70;99.90;;;;;;4930821;29;20556;-89
2024/02/22 01:15:25;;;;;;;6.45;3.70;;;8.60;99.90;;;;;;4934056;29;20051;-89
2024/02/22 01:17:52;;;;;;;6.00;3.40;;;8.60;99.90;;;;;;4938649;29;20051;-89
2024/02/22 01:20:19;;;;;;;6.38;3.78;;;8.70;99.90;;;;;;4935945;29;20489;-89
2024/02/22 01:22:45;;;;;;;5.20;3.50;;;8.70;99.90;;;;;;4933626;29;20043;-89
2024/02/22 01:25:12;;;;;;;5.70;3.53;;;8.70;99.90;;;;;;4958255;29;20075;-89
2024/02/22 01:27:39;;;;;;;6.75;3.67;;;8.70;99.90;;;;;;4938415;29;20088;-89
2024/02/22 01:30:06;;;;;;;5.82;3.63;;;8.70;99.90;;;;;;4938545;29;20082;-89
2024/02/22 01:32:33;;;;;;;6.57;3.95;;;8.70;99.90;;;;;;4954185;29;20564;-88
2024/02/22 01:34:59;;;;;;;5.90;4.03;;;8.70;99.90;;;;;;4954075;29;20138;-89
2024/02/22 01:37:27;;;;;;;6.68;4.13;;;8.70;99.90;;;;;;4938144;29;20044;-89
2024/02/22 01:39:53;;;;;;;6.35;3.97;;;8.80;99.90;;;;;;4953963;29;20050;-89
2024/02/22 01:42:20;;;;;;;7.07;4.28;;;9.70;99.90;;;;;;4933734;29;20039;-89
2024/02/22 01:44:47;;;;;;;7.10;4.00;;;8.80;99.90;;;;;;4941873;29;20043;-88
2024/02/22 01:47:14;;;;;;;5.47;3.58;;;8.80;99.90;;;;;;4935186;29;20107;-89
2024/02/22 01:49:41;;;;;;;6.57;4.07;;;9.30;99.90;;;;;;4937843;29;20123;-89
2024/02/22 01:52:10;;;;;;;6.07;3.95;;;8.80;99.90;;;;;;4938241;29;20134;-88
2024/02/22 01:54:37;;;;;;;6.88;4.28;;;9.20;99.90;;;;;;4953255;29;20040;-88
2024/02/22 01:57:04;;;;;;;5.95;4.03;;;8.80;99.90;;;;;;4937801;29;20958;-88
2024/02/22 01:59:32;;;;;;;7.18;4.40;;;8.80;99.90;;;;;;4937690;29;20560;-89
2024/02/22 02:01:59;;;;;;;7.63;3.95;;;8.80;99.90;;;;;;4938944;29;20091;-89
2024/02/22 02:04:26;;;;;;;6.90;4.32;;;8.90;99.90;;;;;;4937643;29;20784;-88
2024/02/22 02:06:52;;;;;;;6.40;4.13;;;9.10;99.90;;;;;;4937152;29;20051;-89
2024/02/22 02:09:19;;;;;;;7.18;4.40;;;8.80;99.90;;;;;;4937979;29;20040;-89
2024/02/22 02:11:46;;;;;;;6.82;4.20;;;8.80;99.90;;;;;;4925613;29;20118;-89
2024/02/22 02:14:13;;;;;;;6.60;4.13;;;8.90;99.90;;;;;;4938194;29;20051;-89
2024/02/22 02:16:40;;;;;;;8.07;4.65;;;9.70;99.90;;;;;;4953306;29;20039;-89
2024/02/22 02:19:10;;;;;;;6.80;4.30;;;8.90;99.90;;;;;;4937584;29;20099;-89
2024/02/22 02:21:49;;;;;;;8.07;4.40;;;8.90;99.90;;;;;;4937119;29;20039;-89
2024/02/22 02:24:29;;;;;;;6.75;4.45;;;8.90;99.90;;;;;;4937734;29;20075;-89
2024/02/22 02:26:56;;;;;;;7.63;4.10;;;8.90;99.90;;;;;;4927342;29;20044;-89
2024/02/22 02:29:24;;;;;;;7.57;4.63;;;9.10;99.90;;;;;;4950166;29;20056;-89
2024/02/22 02:31:51;;;;;;;6.93;4.20;;;9.00;99.90;;;;;;4929839;29;20086;-89
2024/02/22 02:34:17;;;;;;;7.75;4.28;;;9.00;99.90;;;;;;4949680;29;20127;-89
2024/02/22 02:36:44;;;;;;;7.82;4.60;;;8.90;99.90;;;;;;4937459;29;20051;-89
2024/02/22 02:39:11;;;;;;;7.68;4.65;;;9.20;99.90;;;;;;4937385;29;20175;-89
2024/02/22 02:41:37;;;;;;;7.25;4.38;;;8.90;99.90;;;;;;4937530;29;20086;-88
2024/02/22 02:44:04;;;;;;;6.88;4.28;;;9.00;99.90;;;;;;4937412;29;20043;-89
2024/02/22 02:46:31;;;;;;;8.82;4.20;;;9.00;99.90;;;;;;4928863;29;20036;-89
2024/02/22 02:48:57;;;;;;;8.40;4.57;;;9.00;99.90;;;;;;4926838;29;20040;-89
2024/02/22 02:51:24;;;;;;;7.38;4.40;;;8.90;99.90;;;;;;4930658;29;20040;-89
2024/02/22 02:53:51;;;;;;;7.55;4.40;;;8.90;99.90;;;;;;4937348;29;20052;-89
2024/02/22 02:56:17;;;;;;;6.90;4.47;;;9.00;99.90;;;;;;4935463;29;20048;-89
2024/02/22 02:58:44;;;;;;;7.97;4.32;;;9.00;99.90;;;;;;4941307;29;20501;-89
2024/02/22 03:01:10;;;;;;;8.10;4.40;;;9.00;99.90;;;;;;4937574;29;20040;-89
2024/02/22 03:03:37;;;;;;;7.00;4.43;;;9.70;99.90;;;;;;4936977;29;20509;-89
2024/02/22 03:06:04;;;;;;;8.15;4.60;;;9.00;99.90;;;;;;4931110;29;20044;-88
2024/02/22 03:08:31;;;;;;;8.02;4.75;;;9.00;99.90;;;;;;4930793;29;20043;-89
2024/02/22 03:10:57;;;;;;;7.25;4.45;;;9.30;99.90;;;;;;4918413;29;20040;-89
2024/02/22 03:13:24;;;;;;;7.75;4.35;;;9.20;99.90;;;;;;4923956;29;20382;-89
2024/02/22 03:15:52;;;;;;;9.27;4.60;;;9.10;99.90;;;;;;4936629;29;20047;-89
2024/02/22 03:18:18;;;;;;;8.20;4.72;;;9.40;99.90;;;;;;4940286;29;20047;-89
2024/02/22 03:20:45;;;;;;;10.15;4.93;;;9.00;99.90;;;;;;4941019;29;20070;-88
2024/02/22 03:23:12;;;;;;;7.47;4.25;;;9.10;99.90;;;;;;4940429;29;20031;-89
2024/02/22 03:25:40;;;;;;;7.00;4.28;;;9.20;99.90;;;;;;4956501;29;20036;-89
2024/02/22 03:28:10;;;;;;;7.20;4.13;;;9.00;99.90;;;;;;4940391;29;20058;-89
2024/02/22 03:30:36;;;;;;;7.88;4.30;;;9.00;99.90;;;;;;4940619;29;20046;-89
2024/02/22 03:33:04;;;;;;;7.38;4.20;;;9.20;99.90;;;;;;4938165;29;20060;-89
2024/02/22 03:35:30;;;;;;;7.80;4.63;;;9.10;99.90;;;;;;4940442;29;20047;-89
2024/02/22 03:37:57;;;;;;;7.45;4.25;;;8.30;99.90;;;;;;4940289;29;20054;-88
2024/02/22 03:40:24;;;;;;;8.43;4.20;;;9.30;99.90;;;;;;4940403;29;20074;-89
2024/02/22 03:42:50;;;;;;;6.97;3.95;;;9.10;99.90;;;;;;4940075;29;20036;-89
2024/02/22 03:45:17;;;;;;;7.72;4.10;;;9.90;99.90;;;;;;4940525;29;20069;-89
2024/02/22 03:47:44;;;;;;;9.68;4.15;;;9.10;99.90;;;;;;4940640;29;20071;-89
2024/02/22 03:50:10;;;;;;;8.50;4.18;;;9.90;99.90;;;;;;4940069;29;20118;-88
2024/02/22 03:52:37;;;;;;;7.05;3.92;;;9.10;99.90;;;;;;4939503;29;20500;-89
2024/02/22 03:55:04;;;;;;;7.65;4.13;;;9.10;99.90;;;;;;4944826;29;20046;-89
2024/02/22 03:57:31;;;;;;;6.63;3.60;;;9.10;99.90;;;;;;4947029;29;20568;-88
2024/02/22 03:59:58;;;;;;;6.70;3.78;;;9.10;99.90;;;;;;4939449;29;20123;-89
2024/02/22 04:02:25;;;;;;;7.38;4.00;;;9.10;99.90;;;;;;4939353;29;20035;-89
2024/02/22 04:04:54;;;;;;;8.98;3.92;;;9.10;99.90;;;;;;4939535;29;20493;-88
2024/02/22 04:07:23;;;;;;;7.05;3.80;;;9.10;99.90;;;;;;4939638;29;20046;-89
2024/02/22 04:09:51;;;;;;;6.68;3.65;;;9.40;99.90;;;;;;4936934;29;20044;-89
2024/02/22 04:12:17;;;;;;;7.47;3.75;;;9.20;99.90;;;;;;4939665;29;20075;-88
2024/02/22 04:14:44;;;;;;;6.82;3.50;;;9.50;99.90;;;;;;4939900;29;20083;-89
2024/02/22 04:17:11;;;;;;;7.70;3.80;;;9.20;99.90;;;;;;4951722;29;20039;-89
2024/02/22 04:19:38;;;;;;;6.30;3.40;;;9.50;99.90;;;;;;4962817;29;20449;-88
2024/02/22 04:22:04;;;;;;;6.35;3.30;;;9.20;99.90;;;;;;4936597;29;20044;-88
2024/02/22 04:24:31;;;;;;;7.75;3.40;;;10.00;99.90;;;;;;4929309;29;20036;-89
2024/02/22 04:26:59;;;;;;;6.97;3.30;;;9.40;99.90;;;;;;4927322;29;20046;-89
2024/02/22 04:29:25;;;;;;;7.22;3.63;;;9.20;99.90;;;;;;4939149;29;20043;-89
2024/02/22 04:31:52;;;;;;;5.82;3.08;;;9.20;99.90;;;;;;4948560;29;20051;-89
2024/02/22 04:34:19;;;;;;;6.55;3.47;;;9.20;99.90;;;;;;4938245;29;20507;-88
2024/02/22 04:36:47;;;;;;;6.78;3.33;;;9.70;99.90;;;;;;4946644;29;20413;-89
2024/02/22 04:39:14;;;;;;;6.53;3.08;;;9.20;99.90;;;;;;4933051;29;20175;-89
2024/02/22 04:41:40;;;;;;;6.15;3.33;;;9.20;99.90;;;;;;4921472;29;20076;-89
2024/02/22 04:44:07;;;;;;;5.25;2.88;;;9.60;99.90;;;;;;4937427;29;20075;-89
2024/02/22 04:46:35;;;;;;;6.25;2.83;;;9.20;99.90;;;;;;4939120;29;20399;-89
2024/02/22 04:49:04;;;;;;;7.47;3.47;;;9.20;99.90;;;;;;4932497;29;20408;-89
2024/02/22 04:51:32;;;;;;;6.38;3.20;;;9.20;99.90;;;;;;4939209;29;20118;-88
2024/02/22 04:54:02;;;;;;;6.55;3.13;;;9.20;99.90;;;;;;4946793;29;20078;-89
2024/02/22 04:56:29;;;;;;;6.72;3.33;;;9.20;99.90;;;;;;4927034;29;20047;-88
2024/02/22 04:58:56;;;;;;;5.28;2.72;;;9.20;99.90;;;;;;4938897;29;20040;-89
2024/02/22 05:01:26;;;;;;;8.02;2.88;;;9.30;99.90;;;;;;4939124;29;20722;-88
2024/02/22 05:03:53;;;;;;;6.40;2.95;;;9.30;99.90;;;;;;4932076;29;20047;-89
2024/02/22 05:06:20;;;;;;;6.82;2.88;;;9.70;99.90;;;;;;4954326;29;20046;-89
2024/02/22 05:08:47;;;;;;;7.25;2.95;;;9.70;99.90;;;;;;4936507;29;20114;-89
2024/02/22 05:11:13;;;;;;;6.50;2.78;;;9.20;99.90;;;;;;4925324;29;20082;-89
2024/02/22 05:13:43;;;;;;;5.50;2.55;;;9.20;99.90;;;;;;4948189;29;20062;-89
2024/02/22 05:16:09;;;;;;;5.18;2.80;;;9.70;99.90;;;;;;4929612;29;20515;-89
2024/02/22 05:18:37;;;;;;;6.95;2.85;;;9.40;99.90;;;;;;4935280;29;20040;-89
2024/02/22 05:21:04;;;;;;;6.88;3.20;;;9.60;99.90;;;;;;4935716;29;20047;-89
2024/02/22 05:23:31;;;;;;;7.65;3.25;;;9.30;99.90;;;;;;4945794;29;20036;-89
2024/02/22 05:25:58;;;;;;;5.80;2.50;;;9.30;99.90;;;;;;4930559;29;20040;-89
2024/02/22 05:28:24;;;;;;;5.70;2.38;;;9.20;99.90;;;;;;4938261;29;20118;-89
2024/02/22 05:30:51;;;;;;;6.45;2.85;;;9.60;99.90;;;;;;4949273;29;20137;-89
2024/02/22 05:33:18;;;;;;;7.15;3.10;;;10.00;99.90;;;;;;4951462;29;20052;-88
2024/02/22 05:35:44;;;;;;;6.82;2.85;;;9.30;99.90;;;;;;4931957;29;20130;-89
2024/02/22 05:38:11;;;;;;;6.50;2.92;;;9.20;99.90;;;;;;4922049;29;20080;-89
2024/02/22 05:40:38;;;;;;;5.45;2.50;;;9.70;99.90;;;;;;4953772;29;20042;-89
2024/02/22 05:43:04;;;;;;;6.13;2.83;;;9.30;99.90;;;;;;4952728;29;20040;-89
2024/02/22 05:45:34;;;;;;;5.80;2.38;;;9.90;99.90;;;;;;4938533;29;20103;-88
2024/02/22 05:48:01;;;;;;;6.18;2.55;;;9.30;99.90;;;;;;4950857;29;20032;-89
2024/02/22 05:50:27;;;;;;;6.43;2.58;;;9.30;99.90;;;;;;4929223;29;20102;-89
2024/02/22 05:52:54;;;;;;;7.03;2.70;;;9.30;99.90;;;;;;4935380;29;20047;-88
2024/02/22 05:55:21;;;;;;;6.13;2.60;;;9.80;99.90;;;;;;4953212;29;20409;-89
2024/02/22 05:57:47;;;;;;;6.57;2.42;;;9.30;99.90;;;;;;4935021;29;20504;-89
2024/02/22 06:00:15;;;;;;;5.55;2.67;;;9.30;99.90;;;;;;4930264;29;20039;-89
2024/02/22 06:02:43;;;;;;;6.53;2.60;;;9.30;99.90;;;;;;4949983;29;20047;-88
2024/02/22 06:05:09;;;;;;;6.25;2.45;;;9.50;99.90;;;;;;4938035;29;20043;-89
2024/02/22 06:07:37;;;;;;;5.22;2.45;;;9.80;99.90;;;;;;4938246;29;20059;-89
2024/02/22 06:10:04;;;;;;;6.85;2.95;;;10.00;99.90;;;;;;4948184;29;20040;-89
2024/02/22 06:12:31;;;;;;;8.48;3.83;;;9.30;99.90;;;;;;4934408;29;20050;-89
2024/02/22 06:14:57;;;;;;;7.65;3.95;;;9.30;99.90;;;;;;4951450;29;20044;-89
2024/02/22 06:17:24;;;;;;;7.85;4.40;;;10.00;99.90;;;;;;4937545;29;20246;-89
2024/02/22 06:19:50;;;;;;;8.65;4.28;;;9.30;99.90;;;;;;4937663;29;20103;-89
2024/02/22 06:22:17;;;;;;;9.35;3.80;;;9.30;99.90;;;;;;4937697;29;20118;-89
2024/02/22 06:24:44;;;;;;;7.85;3.80;;;10.00;99.90;;;;;;4925596;29;20496;-89
2024/02/22 06:27:11;;;;;;;7.63;4.07;;;9.70;99.90;;;;;;4939464;29;20063;-89
2024/02/22 06:29:41;;;;;;;8.00;3.53;;;9.30;99.90;;;;;;4946113;29;20035;-89
2024/02/22 06:32:08;;;;;;;8.93;3.67;;;9.30;99.90;;;;;;4947837;29;20076;-89
2024/02/22 06:34:35;;;;;;;6.97;3.47;;;9.80;99.90;;;;;;4937316;29;20101;-89
2024/02/22 06:37:01;;;;;;;7.10;3.38;;;9.60;99.90;;;;;;4937239;29;20039;-89
2024/02/22 06:39:28;;;;;;;7.95;3.60;;;9.30;99.90;;;;;;4931760;29;20043;-89
2024/02/22 06:41:55;;;;;;;10.18;3.90;;;10.30;99.90;;;;;;4937168;29;20071;-89
2024/02/22 06:44:21;;;;;;;9.15;3.80;;;9.70;99.90;;;;;;4951757;29;20787;-89
2024/02/22 06:46:48;;;;;;;7.10;3.58;;;9.40;99.90;;;;;;4936752;29;20508;-89
2024/02/22 06:49:15;;;;;;;7.43;3.45;;;9.40;99.90;;;;;;4936910;29;20043;-89
2024/02/22 06:51:42;;;;;;;11.13;3.63;;;9.40;99.90;;;;;;4936697;29;20040;-89
2024/02/22 06:54:09;;;;;;;10.73;4.82;;;9.50;99.90;;;;;;4939284;29;20043;-89
2024/02/22 06:56:36;;;;;;;11.85;4.82;;;9.40;99.90;;;;;;4938177;29;20044;-89
2024/02/22 06:59:02;;;;;;;10.75;5.35;;;9.40;99.90;;;;;;4937474;29;20188;-89
2024/02/22 07:01:29;;;;;;;18.60;5.38;;;9.50;99.90;;;;;;4944515;29;20102;-89
2024/02/22 07:03:56;;;;;;;23.70;8.30;;;9.40;99.90;;;;;;4949455;29;20039;-89
2024/02/22 07:06:22;;;;;;;29.50;9.40;;;9.50;99.90;;;;;;4948153;29;20501;-88
2024/02/22 07:08:49;;;;;;;28.40;9.15;;;9.90;99.90;;;;;;4937399;29;20040;-88
2024/02/22 07:11:16;;;;;;;45.70;10.93;;;9.60;99.90;;;;;;4938905;29;20044;-88
2024/02/22 07:13:43;;;;;;;34.17;10.95;;;9.60;99.90;;;;;;4939986;29;20040;-88
2024/02/22 07:16:09;;;;;;;44.00;12.10;;;9.50;99.90;;;;;;4955744;29;20119;-88
2024/02/22 07:18:36;;;;;;;38.05;12.38;;;9.60;99.90;;;;;;4940461;29;20123;-88
2024/02/22 07:21:03;;;;;;;36.08;11.95;;;9.50;99.90;;;;;;4939968;29;20048;-88
2024/02/22 07:23:30;;;;;;;37.25;11.35;;;9.50;99.90;;;;;;4937827;29;20044;-88
2024/02/22 07:25:57;;;;;;;32.22;10.57;;;9.60;99.90;;;;;;4941952;29;20136;-88
2024/02/22 07:28:23;;;;;;;34.75;10.48;;;9.60;99.90;;;;;;4940431;29;20047;-88
2024/02/22 07:30:50;;;;;;;39.17;11.10;;;9.60;99.90;;;;;;4939589;29;20493;-88
2024/02/22 07:33:16;;;;;;;41.17;10.63;;;9.60;99.90;;;;;;4939641;29;20048;-88
2024/02/22 07:35:43;;;;;;;38.13;9.63;;;9.50;99.90;;;;;;4939957;29;20047;-88
2024/02/22 07:38:11;;;;;;;47.45;10.52;;;9.60;99.90;;;;;;4940433;29;20048;-88
2024/02/22 07:40:37;;;;;;;34.90;9.77;;;10.30;99.90;;;;;;4942799;29;20040;-89
2024/02/22 07:43:04;;;;;;;33.90;9.02;;;10.50;99.90;;;;;;4940871;29;20088;-88
2024/02/22 07:45:31;;;;;;;36.13;8.20;;;9.50;99.90;;;;;;4940800;29;20036;-89
2024/02/22 07:47:58;;;;;;;30.75;8.07;;;9.90;99.90;;;;;;4940134;29;20039;-88
2024/02/22 07:50:28;;;;;;;32.42;7.60;;;9.40;99.90;;;;;;4940118;29;20061;-90
2024/02/22 07:52:54;;;;;;;37.60;6.25;;;9.60;99.90;;;;;;4956049;29;20476;-89
2024/02/22 07:55:21;;;;;;;26.73;6.15;;;9.50;99.90;;;;;;4939983;29;20071;-89
2024/02/22 07:57:47;;;;;;;26.90;6.30;;;9.50;99.90;;;;;;4940223;29;20114;-88
2024/02/22 08:00:16;;;;;;;23.10;5.30;;;9.50;99.90;;;;;;4939696;29;20094;-88
2024/02/22 08:02:43;;;;;;;31.15;5.35;;;9.50;99.90;;;;;;4938596;29;20048;-85
2024/02/22 08:05:11;;;;;;;31.08;4.85;;;9.70;99.90;;;;;;4937794;29;20046;-85
2024/02/22 08:07:39;;;;;;;23.40;4.30;;;9.50;99.90;;;;;;4938572;29;20043;-84
2024/02/22 08:10:07;;;;;;;28.05;6.05;;;9.50;99.90;;;;;;4937813;29;20420;-85
2024/02/22 08:12:33;;;;;;;27.42;5.38;;;9.60;99.90;;;;;;4951738;29;20066;-84
2024/02/22 08:15:01;;;;;;;29.25;5.78;;;9.60;99.90;;;;;;4938390;29;20044;-85
2024/02/22 08:17:31;;;;;;;17.85;4.90;;;10.50;99.90;;;;;;4953828;29;20039;-84
2024/02/22 08:19:57;;;;;;;30.73;5.30;;;9.60;99.90;;;;;;4937958;29;20118;-84
2024/02/22 08:22:24;;;;;;;21.20;4.28;;;9.70;99.90;;;;;;4953400;29;20481;-84
2024/02/22 08:24:50;;;;;;;22.08;5.43;;;9.60;99.90;;;;;;4954102;29;20036;-84
2024/02/22 08:27:17;;;;;;;31.05;5.53;;;9.60;99.90;;;;;;4937886;29;20065;-84
2024/02/22 08:29:48;;;;;;;25.38;5.75;;;9.60;99.90;;;;;;4938268;29;20054;-84
2024/02/22 08:32:14;;;;;;;25.52;6.95;;;9.60;99.90;;;;;;4927703;29;20048;-85
2024/02/22 08:34:41;;;;;;;20.25;5.03;;;9.60;99.90;;;;;;4936782;29;20066;-84
2024/02/22 08:37:08;;;;;;;21.33;4.80;;;9.80;99.90;;;;;;4943798;29;20040;-84
2024/02/22 08:39:35;;;;;;;21.27;5.25;;;10.00;99.90;;;;;;4953472;29;20048;-84
2024/02/22 08:42:03;;;;;;;27.50;7.95;;;9.80;99.90;;;;;;4951506;29;20052;-84
2024/02/22 08:44:30;;;;;;;24.83;7.25;;;9.90;99.90;;;;;;4937518;29;20040;-84
2024/02/22 08:47:03;;;;;;;30.25;9.48;;;10.10;99.90;;;;;;4954149;29;20044;-84
2024/02/22 08:49:32;;;;;;;30.63;7.85;;;10.10;99.90;;;;;;4947939;29;20079;-90
2024/02/22 08:52:03;;;;;;;24.23;9.50;;;10.10;99.90;;;;;;4939216;29;20480;-89
2024/02/22 08:54:30;;;;;;;22.80;6.38;;;10.40;99.90;;;;;;4936908;29;20038;-90
2024/02/22 08:56:57;;;;;;;23.55;5.05;;;10.10;99.90;;;;;;4955198;29;20036;-88
2024/02/22 08:59:23;;;;;;;24.17;4.97;;;10.10;99.90;;;;;;4938074;29;20042;-88
2024/02/22 09:01:50;;;;;;;19.55;7.57;;;10.10;99.90;;;;;;4938098;29;20046;-87
2024/02/22 09:04:17;;;;;;;17.33;5.97;;;10.00;99.90;;;;;;4937444;29;20130;-86
2024/02/22 09:06:43;;;;;;;21.33;6.00;;;11.00;99.90;;;;;;4937364;29;20047;-86
2024/02/22 09:09:10;;;;;;;19.77;6.13;;;10.10;99.90;;;;;;4953474;29;20687;-86
2024/02/22 09:11:37;;;;;;;31.25;5.72;;;10.50;99.90;;;;;;4938131;29;20039;-86
2024/02/22 09:14:04;;;;;;;17.75;5.40;;;10.10;99.90;;;;;;4952119;29;20048;-86
2024/02/22 09:16:31;;;;;;;19.42;5.70;;;10.10;99.90;;;;;;4950290;29;20183;-86
2024/02/22 09:18:57;;;;;;;24.13;5.35;;;10.00;99.90;;;;;;4956128;29;20036;-86
2024/02/22 09:21:24;;;;;;;21.08;5.45;;;10.00;99.90;;;;;;4941709;29;20062;-86
2024/02/22 09:23:52;;;;;;;22.08;5.88;;;10.10;99.90;;;;;;4937683;29;20044;-86
2024/02/22 09:26:18;;;;;;;18.98;5.60;;;10.00;99.90;;;;;;4937622;29;20101;-86
2024/02/22 09:28:45;;;;;;;20.42;5.53;;;10.20;99.90;;;;;;4940990;29;20075;-86
2024/02/22 09:31:12;;;;;;;21.33;6.85;;;10.50;99.90;;;;;;4938019;29;20103;-86
2024/02/22 09:33:40;;;;;;;21.35;5.85;;;10.50;99.90;;;;;;4921573;29;20060;-86
2024/02/22 09:36:08;;;;;;;17.25;5.32;;;10.10;99.90;;;;;;4918727;29;20538;-86
2024/02/22 09:38:35;;;;;;;22.17;5.63;;;10.20;99.90;;;;;;4921793;29;20497;-86
2024/02/22 09:41:02;;;;;;;21.38;6.00;;;10.20;99.90;;;;;;4920247;29;20414;-85
2024/02/22 09:43:29;;;;;;;24.25;5.60;;;10.20;99.90;;;;;;4934072;29;20055;-86
2024/02/22 09:45:56;;;;;;;26.98;6.10;;;10.40;99.90;;;;;;4918624;29;20054;-86
2024/02/22 09:48:22;;;;;;;18.05;5.50;;;10.30;99.90;;;;;;4917323;29;20067;-86
2024/02/22 09:50:49;;;;;;;21.83;5.28;;;10.60;99.90;;;;;;4917802;29;20032;-86
2024/02/22 09:53:17;;;;;;;21.13;5.80;;;10.40;99.90;;;;;;4909350;29;20044;-86
2024/02/22 09:55:45;;;;;;;22.13;5.95;;;10.50;99.90;;;;;;4914102;29;20048;-86
2024/02/22 09:58:14;;;;;;;19.05;5.18;;;10.60;99.90;;;;;;4924914;29;20040;-86
2024/02/22 10:00:41;;;;;;;20.33;5.72;;;10.60;99.90;;;;;;4918028;29;20079;-86
2024/02/22 10:03:08;;;;;;;21.27;5.72;;;10.80;99.90;;;;;;4933643;29;20441;-86
2024/02/22 10:05:38;;;;;;;20.35;6.22;;;10.60;99.90;;;;;;4918127;29;20047;-86
2024/02/22 10:08:13;;;;;;;25.10;7.00;;;10.60;99.90;;;;;;4917751;29;20028;-86
2024/02/22 10:10:40;;;;;;;21.00;6.03;;;10.60;99.90;;;;;;4918386;29;20457;-86
2024/02/22 10:13:07;;;;;;;24.27;5.55;;;10.60;99.90;;;;;;4933814;29;20081;-85
2024/02/22 10:15:33;;;;;;;23.27;6.22;;;10.70;99.90;;;;;;4922630;29;20098;-86
2024/02/22 10:18:00;;;;;;;24.30;6.20;;;10.80;99.90;;;;;;4918023;29;20059;-86
2024/02/22 10:20:32;;;;;;;22.73;6.18;;;11.20;99.90;;;;;;4917555;29;20044;-86
2024/02/22 10:23:10;;;;;;;23.90;5.90;;;10.90;99.90;;;;;;4917528;29;20115;-86
2024/02/22 10:25:37;;;;;;;16.00;6.10;;;11.00;99.90;;;;;;4929573;29;20382;-86
2024/02/22 10:28:04;;;;;;;18.83;5.55;;;11.10;99.90;;;;;;4915127;29;20051;-86
2024/02/22 10:30:32;;;;;;;15.35;5.40;;;11.00;99.90;;;;;;4933711;29;20044;-86
2024/02/22 10:33:00;;;;;;;26.08;5.88;;;11.10;99.90;;;;;;4927426;29;20142;-86
2024/02/22 10:35:28;;;;;;;24.98;6.63;;;11.20;99.90;;;;;;4941750;29;20043;-86
2024/02/22 10:37:55;;;;;;;19.85;5.70;;;11.10;99.90;;;;;;4934961;29;20040;-86
2024/02/22 10:40:22;;;;;;;19.83;5.85;;;11.10;99.90;;;;;;4929663;29;20040;-86
2024/02/22 10:42:50;;;;;;;16.27;5.47;;;11.00;99.90;;;;;;4936266;29;20054;-86
2024/02/22 10:45:16;;;;;;;18.45;5.95;;;11.00;99.90;;;;;;4952680;29;20045;-86
2024/02/22 10:47:44;;;;;;;20.52;5.60;;;11.00;99.90;;;;;;4952238;29;20047;-86
2024/02/22 10:50:16;;;;;;;24.00;6.43;;;11.00;99.90;;;;;;4936721;29;20042;-86
2024/02/22 10:52:49;;;;;;;21.17;5.30;;;11.00;99.90;;;;;;4934119;29;20048;-86
2024/02/22 10:55:17;;;;;;;19.52;5.88;;;11.00;99.90;;;;;;4953573;29;20047;-87
2024/02/22 10:57:48;;;;;;;21.30;5.47;;;11.20;99.90;;;;;;4938686;29;20035;-87
2024/02/22 11:00:15;;;;;;;18.92;5.10;;;11.10;99.90;;;;;;4952434;29;20039;-86
2024/02/22 11:02:43;;;;;;;19.27;6.00;;;11.00;99.90;;;;;;4952248;29;20062;-86
2024/02/22 11:05:12;;;;;;;22.08;5.72;;;11.70;99.90;;;;;;4951912;29;20489;-86
2024/02/22 11:07:51;;;;;;;16.58;5.43;;;11.20;99.90;;;;;;4930512;29;20032;-86
2024/02/22 11:10:22;;;;;;;15.98;5.53;;;11.00;99.90;;;;;;4947208;29;20070;-86
2024/02/22 11:12:51;;;;;;;15.05;5.72;;;11.00;99.90;;;;;;4936644;29;20047;-86
2024/02/22 11:15:17;;;;;;;20.50;5.35;;;11.20;99.90;;;;;;4937100;29;20031;-86
2024/02/22 11:17:57;;;;;;;17.65;5.55;;;11.20;99.90;;;;;;4952274;29;20044;-86
2024/02/22 11:20:35;;;;;;;14.95;6.25;;;11.50;99.90;;;;;;4936072;29;20044;-86
2024/02/22 11:23:12;;;;;;;15.20;5.18;;;11.50;99.90;;;;;;4935912;29;20043;-86
2024/02/22 11:25:39;;;;;;;18.35;5.30;;;11.60;99.90;;;;;;4926029;29;20039;-86
2024/02/22 11:28:05;;;;;;;14.77;4.95;;;11.70;99.90;;;;;;4936171;29;20064;-86
2024/02/22 11:30:32;;;;;;;13.90;5.38;;;11.70;99.90;;;;;;4936589;29;20035;-86
2024/02/22 11:32:59;;;;;;;16.52;5.47;;;11.70;99.90;;;;;;4939501;29;20060;-86
2024/02/22 11:35:27;;;;;;;18.73;6.30;;;11.70;99.90;;;;;;4935330;29;20130;-87
2024/02/22 11:37:57;;;;;;;17.65;6.00;;;12.00;99.90;;;;;;4951672;29;20083;-86
2024/02/22 11:40:25;;;;;;;15.80;6.13;;;12.10;99.90;;;;;;4937222;29;20085;-86
2024/02/22 11:42:55;;;;;;;13.00;6.00;;;11.80;99.90;;;;;;4938541;29;20528;-86
2024/02/22 11:45:22;;;;;;;14.70;5.93;;;11.60;99.90;;;;;;4930006;29;20036;-86
2024/02/22 11:47:52;;;;;;;11.15;5.43;;;11.70;99.90;;;;;;4935331;29;20040;-86
2024/02/22 11:50:21;;;;;;;13.15;5.70;;;11.60;99.90;;;;;;4936692;29;20048;-86
2024/02/22 11:52:48;;;;;;;16.63;6.35;;;11.80;99.90;;;;;;4951323;29;20131;-86
2024/02/22 11:55:15;;;;;;;15.43;5.97;;;11.90;99.90;;;;;;4937739;29;20040;-86
2024/02/22 11:57:42;;;;;;;12.82;5.15;;;12.00;99.90;;;;;;4939024;29;20045;-86
2024/02/22 12:00:09;;;;;;;13.75;5.40;;;12.00;99.90;;;;;;4939670;29;20044;-86
2024/02/22 12:02:37;;;;;;;13.00;5.25;;;12.00;99.90;;;;;;4938900;29;20046;-86
2024/02/22 12:05:07;;;;;;;11.82;5.38;;;12.00;99.90;;;;;;4938817;29;20040;-86
2024/02/22 12:07:35;;;;;;;10.93;5.00;;;12.00;99.90;;;;;;4932946;29;20043;-86
2024/02/22 12:10:02;;;;;;;10.57;5.05;;;12.00;99.90;;;;;;4939021;29;20151;-86
2024/02/22 12:12:31;;;;;;;9.68;4.80;;;12.00;99.90;;;;;;4939765;29;20122;-86
2024/02/22 12:14:59;;;;;;;17.33;5.18;;;12.00;99.90;;;;;;4938931;29;20047;-86
2024/02/22 12:17:26;;;;;;;12.70;4.97;;;12.00;99.90;;;;;;4936136;29;20051;-86
2024/02/22 12:19:54;;;;;;;11.05;4.28;;;12.00;99.90;;;;;;4938476;29;20519;-86
2024/02/22 12:22:29;;;;;;;11.15;4.00;;;12.10;99.90;;;;;;4951463;29;20565;-86
2024/02/22 12:25:01;;;;;;;10.38;4.03;;;12.00;99.90;;;;;;4935434;29;20036;-91
2024/02/22 12:27:31;;;;;;;12.32;4.40;;;12.00;99.90;;;;;;4926579;29;20070;-86
2024/02/22 12:29:58;;;;;;;9.57;3.70;;;12.00;99.90;;;;;;4954623;29;20035;-86
2024/02/22 12:32:25;;;;;;;8.35;3.50;;;12.10;99.90;;;;;;4937187;29;20056;-86
2024/02/22 12:34:55;;;;;;;8.30;3.47;;;12.20;99.90;;;;;;4936895;29;20088;-86
2024/02/22 12:37:23;;;;;;;11.30;3.45;;;12.30;99.90;;;;;;4937884;29;20134;-86
2024/02/22 12:39:50;;;;;;;9.02;2.97;;;12.30;99.90;;;;;;4936972;29;20062;-85
2024/02/22 12:42:16;;;;;;;6.68;2.60;;;12.30;99.90;;;;;;4937296;29;20043;-86
2024/02/22 12:44:43;;;;;;;8.55;3.25;;;12.40;99.90;;;;;;4953375;29;20047;-85
2024/02/22 12:47:12;;;;;;;9.25;2.80;;;12.30;99.90;;;;;;4937998;29;20036;-86
2024/02/22 12:49:39;;;;;;;7.97;3.10;;;12.20;99.90;;;;;;4933902;29;20044;-86